Time;durP1;ratioP1;P1;durP2;ratioP2;P2;SDS_P1;SDS_P2;PMS_P1;PMS_P2;Temp;Humidity;BMP_temperature;BMP_pressure;BME280_temperature;BME280_humidity;BME280_pressure;Samples;Min_cycle;Max_cycle;Signal;HPM_P1;HPM_P2
2022/05/02 00:02:14;;;;;;;;;6.20;6.20;;;;;15.84;39.85;99265.44;5050539;28;9679;-76
2022/05/02 00:04:42;;;;;;;;;7.60;7.60;;;;;15.82;39.95;99261.94;5050882;28;8838;-76
2022/05/02 00:07:12;;;;;;;;;7.00;6.80;;;;;15.75;39.86;99258.63;5049310;28;9587;-75
2022/05/02 00:09:40;;;;;;;;;9.00;7.40;;;;;15.70;39.71;99263.13;5050315;28;8875;-77
2022/05/02 00:12:10;;;;;;;;;8.00;7.00;;;;;15.70;40.18;99263.13;5051195;28;8854;-76
2022/05/02 00:14:38;;;;;;;;;7.00;7.00;;;;;15.64;40.33;99273.78;5052626;28;8985;-76
2022/05/02 00:17:07;;;;;;;;;6.60;6.60;;;;;15.68;40.12;99274.56;5051367;28;8858;-74
2022/05/02 00:19:37;;;;;;;;;8.40;6.60;;;;;15.68;40.40;99272.81;5051420;28;8881;-76
2022/05/02 00:22:05;;;;;;;;;6.20;5.60;;;;;15.72;39.99;99270.97;5056682;28;8859;-75
2022/05/02 00:24:34;;;;;;;;;5.60;5.60;;;;;15.68;40.35;99272.81;5049413;28;8839;-74
2022/05/02 00:27:03;;;;;;;;;7.00;7.00;;;;;15.68;40.29;99264.06;5049153;28;8996;-76
2022/05/02 00:29:32;;;;;;;;;7.00;6.60;;;;;15.67;40.26;99267.59;5048825;28;8859;-77
2022/05/02 00:32:01;;;;;;;;;6.00;5.40;;;;;15.68;40.36;99262.28;5048949;28;8823;-76
2022/05/02 00:34:29;;;;;;;;;7.00;6.40;;;;;15.65;40.46;99265.03;5048813;28;8854;-75
2022/05/02 00:36:59;;;;;;;;;11.00;9.60;;;;;15.56;40.51;99254.75;5050209;28;8866;-75
2022/05/02 00:39:28;;;;;;;;;9.20;8.60;;;;;15.51;40.77;99269.75;5049955;28;8850;-75
2022/05/02 00:41:57;;;;;;;;;7.00;6.40;;;;;15.50;40.89;99270.63;5050224;28;8862;-75
2022/05/02 00:44:26;;;;;;;;;8.20;8.20;;;;;15.43;40.74;99264.69;5050746;28;8858;-76
2022/05/02 00:46:55;;;;;;;;;10.20;7.80;;;;;15.49;40.93;99264.53;5049446;28;8854;-77
2022/05/02 00:49:23;;;;;;;;;8.40;8.40;;;;;15.49;40.95;99255.78;5030729;28;8900;-74
2022/05/02 00:51:52;;;;;;;;;8.00;7.00;;;;;15.52;41.08;99253.06;5047634;28;8992;-74
2022/05/02 00:54:22;;;;;;;;;11.00;8.20;;;;;15.39;41.28;99252.53;5048279;28;9584;-74
2022/05/02 00:56:51;;;;;;;;;5.80;5.80;;;;;15.38;41.53;99253.41;5050264;28;9741;-76
2022/05/02 00:59:23;;;;;;;;;6.60;6.60;;;;;15.39;41.27;99242.88;5066736;28;8841;-77
2022/05/02 01:01:53;;;;;;;;;9.40;7.60;;;;;15.43;41.44;99237.56;5049774;28;8830;-75
2022/05/02 01:04:22;;;;;;;;;9.20;7.00;;;;;15.41;41.48;99240.22;5066807;28;8838;-77
2022/05/02 01:09:42;;;;;;;;;6.80;6.40;;;;;15.32;41.40;99233.41;5006936;28;8866;-74
2022/05/02 01:12:14;;;;;;;;;7.00;7.00;;;;;15.37;41.54;99244.69;5007106;28;8976;-75
2022/05/02 01:14:43;;;;;;;;;9.40;7.20;;;;;15.38;41.67;99241.13;4974290;28;8858;-77
2022/05/02 01:17:12;;;;;;;;;6.40;5.60;;;;;15.41;41.52;99240.22;5007308;28;8854;-76
2022/05/02 01:19:42;;;;;;;;;6.40;6.20;;;;;15.42;41.35;99236.66;4955909;28;8843;-75
2022/05/02 01:22:12;;;;;;;;;7.00;7.00;;;;;15.40;41.57;99239.34;4987612;28;9416;-75
2022/05/02 01:24:44;;;;;;;;;6.80;6.80;;;;;15.40;41.68;99249.00;4987325;28;8881;-74
2022/05/02 01:27:14;;;;;;;;;5.60;5.60;;;;;15.42;41.56;99236.66;4971267;28;8857;-76
2022/05/02 01:29:45;;;;;;;;;6.00;6.00;;;;;15.46;41.67;99235.69;4987212;28;9047;-76
2022/05/02 01:32:16;;;;;;;;;6.20;6.20;;;;;15.43;41.56;99246.28;4986866;28;8854;-75
2022/05/02 01:34:44;;;;;;;;;6.40;5.00;;;;;15.43;41.62;99235.78;4986797;28;8850;-76
2022/05/02 01:37:15;;;;;;;;;6.60;6.20;;;;;15.47;41.58;99236.56;4986918;28;8862;-75
2022/05/02 01:39:44;;;;;;;;;5.60;5.60;;;;;15.43;41.77;99232.31;4954635;28;8932;-74
2022/05/02 01:42:13;;;;;;;;;5.40;5.40;;;;;15.42;41.64;99236.66;4970807;28;8872;-74
2022/05/02 01:44:42;;;;;;;;;5.80;5.60;;;;;15.51;41.75;99238.22;4986998;28;8846;-76
2022/05/02 01:47:10;;;;;;;;;6.80;6.00;;;;;15.45;41.73;99225.25;5013911;28;8959;-76
2022/05/02 01:49:39;;;;;;;;;6.40;6.20;;;;;15.46;41.63;99240.94;5028520;28;8861;-79
2022/05/02 01:52:08;;;;;;;;;7.40;7.40;;;;;15.52;41.52;99230.28;5026115;28;8912;-74
2022/05/02 01:54:38;;;;;;;;;6.20;6.20;;;;;15.56;41.61;99225.81;5026501;28;8849;-76
2022/05/02 01:57:07;;;;;;;;;10.20;8.80;;;;;15.53;41.83;99223.28;5025909;28;8854;-75
2022/05/02 01:59:35;;;;;;;;;7.60;6.60;;;;;15.43;42.23;99222.66;5009945;28;8857;-74
2022/05/02 02:02:04;;;;;;;;;6.60;6.40;;;;;15.32;42.38;99214.19;5025995;28;8850;-75
2022/05/02 02:07:20;;;;;;;;;6.20;6.20;;;;;15.11;43.15;99216.44;5028707;28;8842;-74
2022/05/02 02:09:50;;;;;;;;;5.20;5.20;;;;;15.07;43.24;99216.56;5043758;28;8884;-74
2022/05/02 02:12:18;;;;;;;;;11.20;8.00;;;;;14.98;43.44;99215.00;5028692;28;8862;-77
2022/05/02 02:14:47;;;;;;;;;7.80;7.80;;;;;14.93;43.29;99220.38;5030544;28;8885;-74
2022/05/02 02:17:16;;;;;;;;;7.20;6.20;;;;;14.87;43.74;99222.25;5032744;28;8842;-74
2022/05/02 02:19:45;;;;;;;;;7.20;7.20;;;;;14.76;43.81;99222.50;5048682;28;8878;-75
2022/05/02 02:22:19;;;;;;;;;7.00;6.40;;;;;14.80;43.92;99217.16;5069842;28;8877;-75
2022/05/02 02:24:50;;;;;;;;;9.20;8.20;;;;;14.78;43.97;99213.72;5053905;28;8915;-76
2022/05/02 02:27:19;;;;;;;;;5.20;5.20;;;;;14.87;43.51;99217.00;5051904;28;8827;-77
2022/05/02 02:29:48;;;;;;;;;6.80;6.80;;;;;14.88;43.60;99218.75;5051286;28;8890;-76
2022/05/02 02:32:16;;;;;;;;;9.40;9.40;;;;;14.90;43.45;99212.56;5051061;28;8862;-76
2022/05/02 02:34:45;;;;;;;;;8.60;7.80;;;;;14.89;43.61;99207.34;5052518;28;8969;-74
2022/05/02 02:37:15;;;;;;;;;7.20;7.20;;;;;14.97;43.50;99206.28;5051068;28;8847;-75
2022/05/02 02:39:44;;;;;;;;;6.60;6.20;;;;;14.90;43.98;99215.19;5056818;28;8856;-75
2022/05/02 02:42:14;;;;;;;;;12.00;11.00;;;;;14.90;43.79;99202.06;5037490;28;8848;-76
2022/05/02 02:44:43;;;;;;;;;15.20;15.20;;;;;14.92;43.74;99205.50;5072436;28;8852;-75
2022/05/02 02:47:12;;;;;;;;;10.00;8.80;;;;;14.85;43.98;99210.94;5072014;28;8851;-75
2022/05/02 02:49:40;;;;;;;;;12.40;12.40;;;;;14.80;44.14;99211.91;5071993;28;8858;-75
2022/05/02 02:52:09;;;;;;;;;9.40;9.40;;;;;14.73;44.35;99206.84;5072345;28;8840;-75
2022/05/02 02:54:38;;;;;;;;;11.00;11.00;;;;;14.78;44.46;99215.44;5070508;28;9474;-76
2022/05/02 02:57:06;;;;;;;;;9.80;9.60;;;;;14.85;44.02;99206.53;5071999;28;8876;-75
2022/05/02 02:59:36;;;;;;;;;11.20;10.40;;;;;14.91;43.85;99202.91;5070665;28;8882;-76
2022/05/02 03:02:07;;;;;;;;;12.40;11.60;;;;;14.90;44.34;99207.31;5070496;28;8848;-75
2022/05/02 03:07:24;;;;;;;;;12.00;11.20;;;;;14.87;44.00;99204.75;5071897;28;9104;-76
2022/05/02 03:09:52;;;;;;;;;12.40;11.40;;;;;14.87;44.18;99210.00;5070408;28;9586;-75
2022/05/02 03:12:21;;;;;;;;;9.20;8.60;;;;;14.92;44.02;99204.66;5054960;28;8838;-75
2022/05/02 03:14:51;;;;;;;;;13.20;12.80;;;;;14.93;44.02;99204.63;5050275;28;8846;-75
2022/05/02 03:17:20;;;;;;;;;5.80;4.80;;;;;14.88;44.41;99201.22;5050531;28;8847;-77
2022/05/02 03:19:49;;;;;;;;;14.25;12.50;;;;;14.94;44.14;99208.09;5051422;28;8872;-75
2022/05/02 03:22:18;;;;;;;;;16.20;14.40;;;;;14.93;43.94;99199.38;5051566;28;8888;-77
2022/05/02 03:24:47;;;;;;;;;13.40;12.40;;;;;14.92;44.02;99204.66;5049618;28;8850;-76
2022/05/02 03:27:16;;;;;;;;;10.20;10.20;;;;;14.92;44.01;99200.25;5051600;28;8869;-76
2022/05/02 03:29:45;;;;;;;;;9.60;9.60;;;;;14.86;44.33;99200.41;5049980;28;8835;-75
2022/05/02 03:32:15;;;;;;;;;10.40;10.00;;;;;14.91;44.08;99203.75;5032524;28;8973;-75
2022/05/02 03:34:43;;;;;;;;;13.20;11.00;;;;;14.92;44.07;99200.25;5051006;28;8858;-76
2022/05/02 03:37:12;;;;;;;;;11.20;10.40;;;;;14.95;44.03;99204.56;5015926;28;8945;-75
2022/05/02 03:39:41;;;;;;;;;9.20;9.20;;;;;14.90;44.58;99209.06;5048403;28;8869;-77
2022/05/02 03:42:09;;;;;;;;;7.00;7.00;;;;;14.86;44.46;99208.28;5048308;28;8840;-76
2022/05/02 03:44:39;;;;;;;;;6.80;6.80;;;;;14.84;44.72;99219.69;5031993;28;8836;-75
2022/05/02 03:47:07;;;;;;;;;13.80;11.80;;;;;14.83;44.85;99216.22;5032018;28;9017;-76
2022/05/02 03:49:37;;;;;;;;;13.40;12.00;;;;;14.89;44.65;99212.59;5048194;28;8824;-75
2022/05/02 03:52:07;;;;;;;;;11.20;8.40;;;;;14.88;44.60;99213.50;5048384;28;8835;-76
2022/05/02 03:54:35;;;;;;;;;11.20;10.00;;;;;14.93;44.20;99206.34;5047919;28;8870;-76
2022/05/02 03:57:04;;;;;;;;;8.40;8.40;;;;;14.89;44.51;99218.69;5015251;28;9024;-74
2022/05/02 03:59:33;;;;;;;;;9.80;9.80;;;;;14.95;44.61;99217.69;5015441;28;8862;-75
2022/05/02 04:02:01;;;;;;;;;9.40;9.40;;;;;15.03;44.52;99210.50;5047932;28;8851;-75
2022/05/02 04:04:30;;;;;;;;;6.40;6.40;;;;;15.07;44.65;99209.53;5048314;28;8847;-77
2022/05/02 04:07:00;;;;;;;;;12.60;10.40;;;;;15.13;44.44;99209.38;5031382;28;8847;-78
2022/05/02 04:09:28;;;;;;;;;11.80;11.00;;;;;15.21;44.45;99211.81;5050639;28;9669;-76
2022/05/02 04:11:57;;;;;;;;;12.00;11.00;;;;;15.23;44.52;99206.53;5049286;28;8862;-75
2022/05/02 04:14:26;;;;;;;;;10.40;10.40;;;;;15.31;44.55;99207.19;5050129;28;8861;-75
2022/05/02 04:16:54;;;;;;;;;11.00;11.00;;;;;15.24;44.55;99217.00;5050317;28;8893;-74
2022/05/02 04:19:23;;;;;;;;;10.00;10.00;;;;;15.20;44.75;99210.94;5032510;28;8889;-75
2022/05/02 04:21:52;;;;;;;;;12.80;11.80;;;;;15.21;44.96;99217.91;5022751;28;8863;-74
2022/05/02 04:24:21;;;;;;;;;14.00;13.20;;;;;15.23;44.71;99217.03;5035301;28;8957;-74
2022/05/02 04:26:50;;;;;;;;;6.80;6.40;;;;;15.16;44.97;99216.31;5068920;28;8836;-75
2022/05/02 04:29:19;;;;;;;;;11.20;11.20;;;;;15.17;45.11;99216.25;5051043;28;9574;-75
2022/05/02 04:31:47;;;;;;;;;13.80;12.00;;;;;15.25;44.81;99208.19;5068574;28;8863;-76
2022/05/02 04:34:15;;;;;;;;;12.80;10.40;;;;;15.29;44.76;99208.97;5054560;28;8969;-77
2022/05/02 04:36:44;;;;;;;;;11.00;11.00;;;;;15.26;44.78;99211.72;5049348;28;8835;-75
2022/05/02 04:39:13;;;;;;;;;12.00;11.60;;;;;15.31;45.35;99213.31;5049509;28;8881;-74
2022/05/02 04:41:43;;;;;;;;;10.00;9.00;;;;;15.34;45.23;99213.22;5032628;28;8855;-75
2022/05/02 04:44:11;;;;;;;;;9.20;8.40;;;;;15.38;45.39;99211.38;5049966;28;8834;-78
2022/05/02 04:46:40;;;;;;;;;11.80;10.40;;;;;15.42;45.31;99214.78;5049790;28;9715;-77
2022/05/02 04:49:08;;;;;;;;;9.80;9.80;;;;;15.43;45.29;99211.28;5010526;28;8990;-76
2022/05/02 04:51:37;;;;;;;;;4.80;4.00;;;;;15.51;45.24;99220.66;5027316;28;8884;-75
2022/05/02 04:54:06;;;;;;;;;8.20;8.20;;;;;15.55;45.12;99206.53;5017744;28;8951;-76
2022/05/02 04:56:34;;;;;;;;;10.80;10.80;;;;;15.47;45.18;99223.44;5014372;28;8906;-76
2022/05/02 04:59:04;;;;;;;;;11.60;11.40;;;;;15.54;45.42;99217.13;5029872;28;8866;-75
2022/05/02 05:01:33;;;;;;;;;7.80;7.80;;;;;15.61;44.90;99218.66;4997570;28;8879;-75
2022/05/02 05:04:01;;;;;;;;;11.00;9.20;;;;;15.66;44.86;99222.03;5030566;28;9759;-76
2022/05/02 05:06:31;;;;;;;;;8.20;8.20;;;;;15.73;44.60;99214.88;5031053;28;8840;-76
2022/05/02 05:08:59;;;;;;;;;8.60;8.40;;;;;15.81;44.76;99218.19;5046941;28;8851;-76
2022/05/02 05:11:37;;;;;;;;;6.60;6.60;;;;;15.81;44.38;99209.44;5027159;28;8854;-76
2022/05/02 05:17:17;;;;;;;;;12.00;8.40;;;;;15.97;44.15;99210.72;5010617;28;9770;-75
2022/05/02 05:20:03;;;;;;;;;9.40;8.80;;;;;16.03;43.58;99205.31;5033184;28;8941;-77
2022/05/02 05:22:50;;;;;;;;;14.00;11.80;;;;;16.23;43.72;99211.75;5047887;28;8961;-76
2022/05/02 05:25:37;;;;;;;;;9.20;9.20;;;;;16.26;43.86;99207.25;5050677;28;8850;-76
2022/05/02 05:28:31;;;;;;;;;12.20;9.40;;;;;16.30;43.53;99210.66;5014528;28;8885;-75
2022/05/02 05:31:11;;;;;;;;;11.60;10.00;;;;;16.42;43.56;99209.44;5049318;28;8842;-75
2022/05/02 05:33:50;;;;;;;;;12.80;10.40;;;;;16.54;43.12;99216.94;5047925;28;9628;-74
2022/05/02 05:36:30;;;;;;;;;10.00;8.00;;;;;16.66;43.56;99211.31;5047752;28;8886;-79
2022/05/02 05:39:04;;;;;;;;;8.40;8.20;;;;;16.77;43.71;99221.53;5049351;28;8846;-75
2022/05/02 05:41:50;;;;;;;;;12.80;10.80;;;;;16.71;43.55;99216.44;5047766;28;8889;-75
2022/05/02 05:44:29;;;;;;;;;11.60;10.40;;;;;16.71;43.38;99219.06;5064671;28;8933;-75
2022/05/02 05:47:25;;;;;;;;;9.40;8.60;;;;;16.69;43.37;99215.63;5047596;28;8862;-74
2022/05/02 05:50:06;;;;;;;;;8.80;7.80;;;;;16.70;43.64;99218.22;5048150;28;8948;-76
2022/05/02 05:52:46;;;;;;;;;9.80;8.80;;;;;16.64;43.85;99221.03;5030737;28;8859;-78
2022/05/02 05:55:19;;;;;;;;;10.00;10.00;;;;;16.66;43.60;99227.13;5048014;28;8842;-75
2022/05/02 05:57:53;;;;;;;;;10.60;10.20;;;;;16.67;43.37;99223.59;5047616;28;8846;-74
2022/05/02 06:00:24;;;;;;;;;9.00;9.00;;;;;16.77;43.43;99225.03;4959893;28;8836;-75
2022/05/02 06:03:08;;;;;;;;;8.80;7.80;;;;;16.95;43.47;99230.66;5067604;28;8860;-77
2022/05/02 06:05:40;;;;;;;;;10.60;9.20;;;;;16.85;44.19;99227.44;5050732;28;9014;-76
2022/05/02 06:08:15;;;;;;;;;9.80;9.20;;;;;16.90;43.75;99230.81;5067178;28;8859;-75
2022/05/02 06:10:44;;;;;;;;;12.00;9.20;;;;;16.95;44.29;99230.66;5069169;28;8884;-77
2022/05/02 06:13:16;;;;;;;;;10.00;10.00;;;;;17.00;43.90;99235.78;5067631;28;8937;-77
2022/05/02 06:18:56;;;;;;;;;8.00;8.00;;;;;16.77;44.21;99227.66;5068973;28;9564;-76
2022/05/02 06:21:27;;;;;;;;;11.40;9.80;;;;;16.87;44.17;99224.78;5023758;28;8965;-74
2022/05/02 06:23:58;;;;;;;;;5.20;5.00;;;;;16.91;44.12;99234.28;5029739;28;8912;-76
2022/05/02 06:26:27;;;;;;;;;11.20;11.20;;;;;17.04;43.83;99224.25;5047859;28;8965;-76
2022/05/02 06:28:56;;;;;;;;;10.40;8.80;;;;;17.00;43.78;99227.88;5047322;28;8850;-76
2022/05/02 06:31:26;;;;;;;;;13.40;13.40;;;;;16.89;43.81;99236.13;5048793;28;8978;-75
2022/05/02 06:33:58;;;;;;;;;18.60;18.20;;;;;16.95;43.85;99239.41;5047174;28;8843;-75
2022/05/02 06:36:51;;;;;;;;;26.00;23.80;;;;;17.00;44.11;99241.06;5063657;28;8846;-76
2022/05/02 06:39:34;;;;;;;;;23.75;22.00;;;;;17.08;43.71;99241.66;5047001;28;8956;-74
2022/05/02 06:42:20;;;;;;;;;19.00;18.00;;;;;17.02;43.76;99240.09;5063511;28;8859;-77
2022/05/02 06:45:02;;;;;;;;;18.40;17.00;;;;;17.15;43.44;99235.28;5066427;28;8866;-75
2022/05/02 06:47:40;;;;;;;;;10.00;10.00;;;;;17.27;43.21;99231.38;5001749;28;8858;-76
2022/05/02 06:50:12;;;;;;;;;10.20;9.60;;;;;17.40;43.11;99237.97;5063405;28;8965;-76
2022/05/02 06:52:49;;;;;;;;;8.60;7.80;;;;;17.51;43.50;99230.56;5046952;28;8855;-77
2022/05/02 06:55:25;;;;;;;;;9.40;9.00;;;;;17.63;43.21;99233.69;5029635;28;8961;-75
2022/05/02 06:58:09;;;;;;;;;9.20;8.80;;;;;17.77;43.08;99239.38;5046609;28;8873;-77
2022/05/02 07:00:48;;;;;;;;;11.80;10.20;;;;;17.89;42.58;99223.13;5065797;28;8877;-75
2022/05/02 07:03:48;;;;;;;;;9.80;9.20;;;;;17.97;42.60;99243.09;5050120;28;8944;-76
2022/05/02 07:06:31;;;;;;;;;10.60;9.20;;;;;18.00;42.16;99232.44;5058238;28;8985;-75
2022/05/02 07:09:03;;;;;;;;;9.60;9.60;;;;;18.16;41.94;99235.38;5033526;28;8843;-78
2022/05/02 07:11:40;;;;;;;;;9.00;8.60;;;;;18.07;42.22;99233.91;5050104;28;8858;-74
2022/05/02 07:14:17;;;;;;;;;8.00;8.00;;;;;18.31;42.36;99237.44;5051431;28;8850;-74
2022/05/02 07:16:50;;;;;;;;;10.20;9.20;;;;;18.46;42.41;99228.09;5050111;28;8854;-75
2022/05/02 07:19:31;;;;;;;;;11.20;11.20;;;;;18.54;41.67;99228.66;5033659;28;8877;-74
2022/05/02 07:22:03;;;;;;;;;8.60;8.60;;;;;18.62;41.60;99220.44;5016487;28;8851;-75
2022/05/02 07:24:52;;;;;;;;;11.40;11.40;;;;;18.53;41.71;99219.03;5051399;28;8859;-76
2022/05/02 07:27:38;;;;;;;;;9.40;9.40;;;;;18.68;41.11;99222.84;5066586;28;9624;-75
2022/05/02 07:30:09;;;;;;;;;10.80;10.20;;;;;18.74;40.65;99219.13;5050643;28;8873;-76
2022/05/02 07:32:37;;;;;;;;;10.00;10.00;;;;;18.72;40.17;99223.59;5016853;28;8858;-75
2022/05/02 07:35:10;;;;;;;;;7.00;7.00;;;;;18.75;40.80;99215.53;5050700;28;8854;-77
2022/05/02 07:37:43;;;;;;;;;8.00;7.80;;;;;19.02;40.58;99225.06;5066344;28;8901;-77
2022/05/02 07:40:14;;;;;;;;;7.00;7.00;;;;;19.21;40.13;99211.09;5049892;28;8904;-78
2022/05/02 07:42:44;;;;;;;;;9.00;9.00;;;;;19.29;39.66;99222.19;5066200;28;8834;-75
2022/05/02 07:45:17;;;;;;;;;6.80;6.20;;;;;19.31;39.08;99224.78;5049688;28;8862;-77
2022/05/02 07:47:48;;;;;;;;;6.40;6.40;;;;;19.33;39.13;99218.50;5051303;28;8831;-77
2022/05/02 07:50:20;;;;;;;;;10.40;9.20;;;;;19.33;38.98;99215.00;5048892;28;8851;-78
2022/05/02 07:52:52;;;;;;;;;11.00;9.60;;;;;19.44;39.77;99224.19;5051489;28;8850;-80
2022/05/02 07:55:23;;;;;;;;;9.80;9.00;;;;;19.51;38.64;99213.34;5032971;28;8983;-77
2022/05/02 07:57:52;;;;;;;;;8.60;8.60;;;;;19.56;38.73;99220.16;5049804;28;8928;-77
2022/05/02 08:00:22;;;;;;;;;10.00;9.40;;;;;19.60;37.34;99215.59;5050639;28;8855;-78
2022/05/02 08:02:51;;;;;;;;;11.40;9.00;;;;;19.64;37.64;99212.78;5049173;28;8882;-77
2022/05/02 08:05:22;;;;;;;;;8.00;8.00;;;;;19.75;37.65;99224.69;5050747;28;8838;-75
2022/05/02 08:07:56;;;;;;;;;8.00;8.00;;;;;19.76;37.47;99222.00;5051994;28;8900;-76
2022/05/02 08:10:41;;;;;;;;;11.00;9.60;;;;;19.66;37.27;99210.94;5050361;28;8851;-75
2022/05/02 08:13:39;;;;;;;;;7.00;6.00;;;;;19.77;36.73;99210.50;5050132;28;8893;-76
2022/05/02 08:16:19;;;;;;;;;8.40;8.40;;;;;19.85;36.88;99216.31;5049535;28;8861;-75
2022/05/02 08:19:04;;;;;;;;;8.60;6.20;;;;;19.81;36.81;99217.38;5050225;28;8851;-75
2022/05/02 08:21:38;;;;;;;;;9.00;7.60;;;;;19.88;36.25;99210.00;5065670;28;8838;-76
2022/05/02 08:27:31;;;;;;;;;6.80;6.80;;;;;20.13;36.30;99212.44;5050087;28;8911;-77
2022/05/02 08:30:08;;;;;;;;;7.60;6.80;;;;;20.33;35.44;99214.16;5003753;28;8944;-77
2022/05/02 08:32:43;;;;;;;;;17.00;15.20;;;;;20.27;35.38;99213.59;4998776;28;8854;-75
2022/05/02 08:35:15;;;;;;;;;9.60;9.00;;;;;20.37;35.06;99213.09;5050244;28;8855;-75
2022/05/02 08:37:58;;;;;;;;;10.00;10.00;;;;;20.50;34.67;99215.19;5015568;28;8890;-76
2022/05/02 08:41:15;;;;;;;;;10.20;9.40;;;;;20.39;34.48;99213.03;5050149;28;8920;-76
2022/05/02 08:44:31;;;;;;;;;8.40;8.00;;;;;20.36;34.37;99215.78;5048467;28;8881;-76
2022/05/02 08:47:28;;;;;;;;;6.20;6.20;;;;;20.48;33.76;99217.91;5049996;28;8896;-76
2022/05/02 08:50:15;;;;;;;;;6.40;6.40;;;;;20.44;33.30;99219.81;5048343;28;8877;-73
2022/05/02 08:53:36;;;;;;;;;8.00;8.00;;;;;20.36;33.33;99218.44;5048796;28;8889;-75
2022/05/02 08:56:32;;;;;;;;;8.00;8.00;;;;;20.51;33.21;99212.47;5048479;28;8843;-77
2022/05/02 08:59:55;;;;;;;;;8.00;8.00;;;;;20.64;33.04;99208.34;4998096;28;9533;-78
2022/05/02 09:03:09;;;;;;;;;6.20;6.20;;;;;20.53;33.63;99207.94;5049374;28;8870;-78
2022/05/02 09:05:47;;;;;;;;;9.60;9.00;;;;;20.73;33.13;99209.66;5047663;28;8861;-75
2022/05/02 09:08:55;;;;;;;;;8.20;8.20;;;;;20.89;32.57;99214.22;5062172;28;8829;-78
2022/05/02 09:11:41;;;;;;;;;8.40;7.40;;;;;20.84;32.86;99201.22;5022005;28;8984;-75
2022/05/02 09:14:48;;;;;;;;;7.00;7.00;;;;;20.78;32.75;99205.03;5066699;28;8850;-75
2022/05/02 09:18:11;;;;;;;;;7.80;7.80;;;;;20.77;32.25;99210.38;4999883;28;9043;-76
2022/05/02 09:20:57;;;;;;;;;6.80;6.20;;;;;20.80;32.67;99199.66;4987157;28;8859;-77
2022/05/02 09:24:10;;;;;;;;;7.00;7.00;;;;;20.75;32.29;99202.50;4986218;28;8957;-76
2022/05/02 09:27:14;;;;;;;;;8.40;8.00;;;;;20.93;32.38;99205.22;4913239;29;8924;-76
2022/05/02 09:30:14;;;;;;;;;6.40;6.40;;;;;21.11;32.15;99184.88;4929313;29;8890;-75
2022/05/02 09:32:55;;;;;;;;;6.20;6.20;;;;;21.15;31.91;99191.75;4929488;29;8960;-75
2022/05/02 09:35:31;;;;;;;;;9.80;8.80;;;;;21.11;31.31;99195.50;4914003;29;8912;-77
2022/05/02 09:38:24;;;;;;;;;8.60;8.60;;;;;21.15;31.22;99195.28;4929638;29;8858;-77
2022/05/02 09:41:00;;;;;;;;;6.60;5.80;;;;;21.21;30.80;99196.78;4932601;28;8991;-74
2022/05/02 09:49:49;;;;;;;;;6.20;6.20;;;;;21.22;30.22;99187.88;4932442;28;8852;-77
2022/05/02 09:52:25;;;;;;;;;6.80;6.40;;;;;;;;4992018;28;8857;-78
2022/05/02 09:58:29;;;;;;;;;6.00;6.00;;;;;21.36;30.61;99184.50;4996291;28;8978;-76
2022/05/02 10:01:07;;;;;;;;;7.20;6.40;;;;;21.36;30.55;99174.78;5033366;28;8927;-76
2022/05/02 10:03:50;;;;;;;;;7.00;7.00;;;;;21.29;29.98;99188.44;5048519;28;8839;-76
2022/05/02 10:06:28;;;;;;;;;8.20;7.40;;;;;21.46;30.21;99190.25;5063867;28;8843;-78
2022/05/02 10:09:02;;;;;;;;;8.00;7.80;;;;;21.21;30.47;99179.06;5046738;28;8862;-75
2022/05/02 10:12:04;;;;;;;;;8.20;8.20;;;;;21.49;30.19;99171.50;5014877;28;9623;-75
2022/05/02 10:15:00;;;;;;;;;8.80;8.00;;;;;21.69;30.19;99183.75;4966787;28;8949;-76
2022/05/02 10:18:00;;;;;;;;;8.80;8.80;;;;;21.84;29.88;99167.03;4919358;28;8847;-76
2022/05/02 10:20:38;;;;;;;;;7.20;7.20;;;;;21.71;29.59;99168.63;4909810;29;9753;-77
2022/05/02 10:23:26;;;;;;;;;6.60;5.60;;;;;21.70;29.36;99173.06;4894107;29;8987;-77
2022/05/02 10:26:07;;;;;;;;;6.80;6.80;;;;;21.96;29.05;99168.16;4897376;29;8871;-76
2022/05/02 10:28:55;;;;;;;;;6.80;6.80;;;;;22.06;28.55;99168.53;4914553;29;8847;-77
2022/05/02 10:31:26;;;;;;;;;6.00;6.00;;;;;21.93;28.45;99161.22;4913381;29;9007;-76
2022/05/02 10:33:56;;;;;;;;;4.40;4.40;;;;;22.02;28.39;99161.66;4929282;29;8873;-76
2022/05/02 10:36:30;;;;;;;;;5.20;5.20;;;;;22.14;28.33;99167.19;4933781;29;8852;-76
2022/05/02 10:39:01;;;;;;;;;6.00;6.00;;;;;22.27;27.93;99171.84;4933119;29;8931;-76
2022/05/02 10:41:45;;;;;;;;;6.60;6.20;;;;;22.10;27.88;99176.25;4886432;29;8959;-76
2022/05/02 10:44:16;;;;;;;;;7.60;7.00;;;;;21.97;27.96;99164.59;4932058;29;8868;-77
2022/05/02 10:46:47;;;;;;;;;9.00;9.00;;;;;22.12;28.39;99163.75;4934654;28;9012;-75
2022/05/02 10:49:25;;;;;;;;;6.80;6.80;;;;;22.24;28.16;99166.69;4935618;28;8861;-77
2022/05/02 10:52:01;;;;;;;;;6.40;6.40;;;;;22.28;27.78;99160.28;4963439;28;8877;-76
2022/05/02 10:54:41;;;;;;;;;5.80;5.00;;;;;22.06;27.74;99168.53;4995434;28;8857;-78
2022/05/02 10:57:23;;;;;;;;;9.20;6.00;;;;;21.95;26.90;99163.81;5027424;28;8874;-76
2022/05/02 10:59:54;;;;;;;;;7.40;6.80;;;;;22.09;26.89;99165.72;5051022;28;8851;-75
2022/05/02 11:02:52;;;;;;;;;6.60;6.40;;;;;22.37;26.96;99173.91;5051957;28;8955;-76
2022/05/02 11:05:28;;;;;;;;;5.80;5.80;;;;;22.13;26.97;99173.41;4971998;28;8897;-77
2022/05/02 11:08:06;;;;;;;;;6.00;6.00;;;;;22.13;26.60;99170.75;4973319;28;8863;-75
2022/05/02 11:10:43;;;;;;;;;4.20;4.00;;;;;22.14;26.21;99163.69;4943746;28;8847;-77
2022/05/02 11:13:20;;;;;;;;;4.80;4.80;;;;;22.23;26.58;99163.19;4973571;28;8880;-76
2022/05/02 11:16:00;;;;;;;;;5.80;5.80;;;;;22.10;26.70;99162.97;4973426;28;8968;-77
2022/05/02 11:21:52;;;;;;;;;6.60;6.60;;;;;22.07;26.11;99160.47;4973669;28;8881;-76
2022/05/02 11:24:40;;;;;;;;;6.60;5.60;;;;;22.39;26.01;99158.75;4989665;28;8906;-77
2022/05/02 11:27:23;;;;;;;;;6.60;5.80;;;;;22.58;26.13;99133.81;4958342;28;8885;-74
2022/05/02 11:30:02;;;;;;;;;4.60;4.60;;;;;22.59;25.53;99148.81;4989933;28;8858;-76
2022/05/02 11:32:40;;;;;;;;;6.00;6.00;;;;;22.40;25.37;99146.34;4992273;28;9609;-76
2022/05/02 11:35:13;;;;;;;;;7.60;7.60;;;;;22.60;25.12;99147.84;4958865;28;8858;-77
2022/05/02 11:37:54;;;;;;;;;6.80;6.80;;;;;22.59;25.34;99154.13;4989730;28;8982;-76
2022/05/02 11:40:28;;;;;;;;;6.20;6.20;;;;;22.64;25.09;99146.72;4989636;28;8867;-76
2022/05/02 11:42:58;;;;;;;;;6.00;5.00;;;;;22.78;25.74;99148.63;5031931;28;8855;-75
2022/05/02 11:45:34;;;;;;;;;5.60;5.40;;;;;22.85;25.13;99147.31;5033010;28;9596;-79
2022/05/02 11:48:52;;;;;;;;;6.40;6.40;;;;;22.74;25.20;99132.00;5033063;28;8865;-75
2022/05/02 11:51:43;;;;;;;;;6.00;6.00;;;;;22.64;25.42;99151.22;5049147;28;8847;-77
2022/05/02 11:54:40;;;;;;;;;5.80;5.80;;;;;22.41;25.43;99145.38;5050993;28;8963;-77
2022/05/02 11:57:16;;;;;;;;;4.60;4.60;;;;;22.24;25.65;99148.09;4969495;28;9105;-74
2022/05/02 11:59:55;;;;;;;;;6.60;5.00;;;;;22.30;25.77;99150.44;4953144;28;9587;-77
2022/05/02 12:02:51;;;;;;;;;5.60;5.60;;;;;22.31;25.70;99149.50;4953821;28;8864;-76
2022/05/02 12:05:27;;;;;;;;;3.60;3.60;;;;;22.22;25.58;99145.50;4975941;28;8850;-76
2022/05/02 12:07:58;;;;;;;;;5.60;5.60;;;;;22.34;25.94;99149.31;4972852;28;8843;-77
2022/05/02 12:10:39;;;;;;;;;6.00;6.00;;;;;22.20;26.18;99139.44;4973008;28;9616;-76
2022/05/02 12:13:12;;;;;;;;;5.60;5.60;;;;;22.23;25.65;99141.94;4930910;29;8873;-76
2022/05/02 12:15:57;;;;;;;;;7.00;7.00;;;;;22.22;25.49;99126.06;4931350;29;8868;-77
2022/05/02 12:18:40;;;;;;;;;7.00;5.80;;;;;22.24;25.48;99125.03;4915066;29;8959;-76
2022/05/02 12:21:14;;;;;;;;;6.00;6.00;;;;;22.41;25.43;99126.78;4915480;29;8868;-78
2022/05/02 12:23:46;;;;;;;;;6.60;6.20;;;;;22.47;25.64;99122.91;4931043;29;8856;-77
2022/05/02 12:26:19;;;;;;;;;7.80;7.00;;;;;22.35;25.51;99120.00;4915160;29;8967;-77
2022/05/02 12:28:51;;;;;;;;;7.80;5.80;;;;;22.51;25.26;99124.47;4931216;29;8868;-76
2022/05/02 12:31:26;;;;;;;;;5.60;5.60;;;;;22.56;25.29;99111.78;4930742;29;9023;-77
2022/05/02 12:33:57;;;;;;;;;7.60;7.60;;;;;22.61;25.59;99109.72;4950801;28;8836;-75
2022/05/02 12:36:35;;;;;;;;;5.20;5.20;;;;;22.83;25.71;99111.13;4984215;28;8876;-76
2022/05/02 12:39:07;;;;;;;;;7.00;7.00;;;;;22.91;25.71;99108.88;5027653;28;8865;-75
2022/05/02 12:41:45;;;;;;;;;7.00;6.00;;;;;22.87;25.81;99110.88;5027816;28;8874;-76
2022/05/02 12:44:15;;;;;;;;;7.00;7.00;;;;;22.83;26.35;99105.81;5036580;28;8856;-75
2022/05/02 12:46:46;;;;;;;;;8.80;7.00;;;;;22.69;26.28;99109.28;5069665;28;8867;-77
2022/05/02 12:49:22;;;;;;;;;3.20;2.00;;;;;22.43;26.38;99100.13;5047432;28;8957;-76
2022/05/02 12:51:53;;;;;;;;;7.00;7.00;;;;;22.48;26.22;99104.25;5047316;28;8843;-75